Latest Coastal Weather Observations for Moorabbin Airport

IDV60701

Issued at 11:55 am EST Saturday 20 September 2014 (issued every 10 minutes, with the page automatically refreshed every 10 minutes)

About coastal observations | Map of coastal stations | Coastal observations for VIC | Marine services | Other Formats
Station Details ID: 086077 Name: MOORABBIN AIRPORT Lat: -37.98 Lon: 145.10 Height: 12.1 m
Data from the previous 72 hours. | See also: Recent months at Moorabbin Airport
Date/Time
EST
Temp

°C
Wind Pressure Rain
since 9am
mm
Weather Cloud Vis
km
Sea
Height
m
Swell
Dir
 
Speed
knots
Gust
knots
hPa Trend Height
m
Period
s
Dir
20/11:30am 13.5 SSW 10 15 1027.9 - 0.0 - Partly cloudy 10 - - - -
20/11:00am 13.4 WSW 9 11 1028.0 - 0.0 - Partly cloudy 10 - - - -
20/10:30am 13.7 SSW 7 11 1028.2 - 0.0 - Partly cloudy 10 - - - -
20/10:00am 12.8 SSW 9 12 1028.2 - 0.0 - Partly cloudy 10 - - - -
20/09:30am 13.0 SSW 9 12 1028.3 - 0.0 - Partly cloudy 10 - - - -
20/09:00am 12.2 S 9 13 1028.1 - 0.0 - Cloudy 10 - - - -
20/08:30am 12.4 SSW 9 12 1027.8 - 0.0 - Partly cloudy 10 - - - -
20/08:00am 11.5 SSW 9 12 1027.6 - 0.0 - Partly cloudy 10 - - - -
20/07:30am 11.4 SSW 9 11 1027.3 - 0.0 - Partly cloudy 10 - - - -
20/07:00am 11.1 SSW 8 11 1027.1 - 0.0 - Partly cloudy 10 - - - -
20/06:30am 10.9 SSW 7 9 1026.7 - 0.0 - Partly cloudy 10 - - - -
20/06:00am 10.6 SW 6 9 1026.2 - 0.0 - Cloudy 10 - - - -
20/05:30am 11.1 SSW 8 10 1025.9 - 0.0 - Partly cloudy 10 - - - -
20/05:00am 10.9 SSW 11 17 1025.4 - 0.0 - Partly cloudy 10 - - - -
20/04:30am 11.1 WSW 6 9 1025.0 - 0.0 - Partly cloudy 10 - - - -
20/04:00am 10.7 WSW 5 8 1025.0 - 0.0 - Partly cloudy 10 - - - -
20/03:30am 10.3 WSW 5 10 1025.0 - 0.0 - Partly cloudy 10 - - - -
20/03:00am 10.0 WNW 3 4 1025.0 - 0.0 - Partly cloudy 10 - - - -
20/02:30am 10.4 W 5 7 1025.1 - 0.0 - Partly cloudy 10 - - - -
20/02:00am 10.8 WSW 7 9 1025.2 - 0.0 - Partly cloudy 10 - - - -
20/01:30am 11.2 WSW 6 8 1025.4 - 0.0 - Cloudy 10 - - - -
20/01:00am 10.9 W 5 7 1025.5 - 0.0 - Partly cloudy 10 - - - -
20/12:30am 11.6 SW 10 13 1025.3 - 0.0 - Partly cloudy 10 - - - -
20/12:00am 11.7 SSW 8 11 1025.1 - 0.0 - Mostly cloudy 10 - - - -
 
Date/Time
EST
Temp

°C
Wind Pressure Rain
since 9am
mm
Weather Cloud Vis
km
Sea
Height
m
Swell
Dir
 
Speed
knots
Gust
knots
hPa Trend Height
m
Period
s
Dir
19/11:30pm 11.7 SSW 7 10 1025.3 - 0.0 - Partly cloudy 10 - - - -
19/11:00pm 12.2 SW 7 11 1025.5 - 0.0 - Partly cloudy 10 - - - -
19/10:30pm 12.3 SW 9 13 1025.6 - 0.0 - Cloudy 10 - - - -
19/10:00pm 12.0 SSW 6 10 1025.7 - 0.0 - Cloudy 10 - - - -
19/09:30pm 12.0 SSW 9 14 1025.9 - 0.0 - Partly cloudy 10 - - - -
19/09:00pm 12.0 SSW 8 11 1025.7 - 0.0 - Cloudy 10 - - - -
19/08:30pm 12.3 SSW 8 12 1025.5 - 0.0 - Partly cloudy 10 - - - -
19/08:00pm 12.4 SSW 9 14 1025.4 - 0.0 - Partly cloudy 10 - - - -
19/07:30pm 12.5 SSW 9 13 1025.2 - 0.0 - Cloudy 10 - - - -
19/07:00pm 12.5 SSW 9 13 1024.8 - 0.0 - Cloudy 10 - - - -
19/06:30pm 12.3 SW 7 11 1024.6 - 0.0 - Partly cloudy 10 - - - -
19/06:00pm 12.1 SSW 8 12 1024.5 - 0.0 - Partly cloudy 10 - - - -
19/05:30pm 12.7 SSW 10 14 1024.3 - 0.0 - Partly cloudy 10 - - - -
19/05:00pm 13.1 SSW 11 14 1024.1 - 0.0 - Partly cloudy 10 - - - -
19/04:30pm 13.3 SSW 11 14 1024.0 - 0.0 - Partly cloudy 10 - - - -
19/04:00pm 13.8 SW 10 14 1023.9 - 0.0 - Partly cloudy 10 - - - -
19/03:30pm 14.1 SW 10 14 1023.8 - 0.0 - Partly cloudy 10 - - - -
19/03:00pm 14.0 SSW 10 15 1023.8 - 0.0 - Partly cloudy 10 - - - -
19/02:30pm 14.6 SSW 10 15 1023.9 - 0.0 - Cloudy 10 - - - -
19/02:00pm 14.9 SSW 10 15 1024.0 - 0.0 - Partly cloudy 10 - - - -
19/01:30pm 14.2 SSW 9 13 1024.0 - 0.0 - Partly cloudy 10 - - - -
19/01:00pm 13.2 S 8 10 1024.4 - 0.0 - Partly cloudy 10 - - - -
19/12:30pm 12.0 SSW 13 17 1024.8 - 0.0 - Partly cloudy 10 - - - -
19/12:00pm 12.9 WSW 9 12 1024.8 - 0.0 - Cloudy 10 - - - -
19/11:30am 12.9 WSW 10 14 1024.9 - 0.0 - Partly cloudy 10 - - - -
19/11:00am 12.8 W 8 11 1024.8 - 0.0 - Partly cloudy 10 - - - -
19/10:30am 11.6 W 10 16 1025.1 - 0.0 - Partly cloudy 10 - - - -
19/10:00am 11.7 W 7 11 1025.1 - 0.0 - Partly cloudy 10 - - - -
19/09:30am 11.4 W 12 17 1025.2 - 0.0 - Partly cloudy 10 - - - -
19/09:00am 10.9 WNW 9 13 1025.1 - 1.6 - Cloudy 10 - - - -
19/08:30am 10.3 WNW 10 15 1025.1 - 1.6 - Partly cloudy 10 - - - -
19/08:00am 10.3 WNW 9 12 1025.0 - 1.6 - - 10 - - - -
19/07:30am 10.0 W 6 11 1024.6 - 1.6 - Partly cloudy 10 - - - -
19/07:00am 9.5 W 8 14 1024.5 - 1.6 - Partly cloudy 10 - - - -
19/06:30am 9.2 W 6 8 1024.2 - 1.6 - Partly cloudy 10 - - - -
19/06:00am 9.8 W 7 12 1024.0 - 1.6 - Cloudy 10 - - - -
19/05:30am 10.0 W 5 10 1023.8 - 1.6 - Partly cloudy 10 - - - -
19/05:00am 9.6 WNW 2 4 1023.8 - 1.6 - Partly cloudy 10 - - - -
19/04:30am 9.4 WNW 3 6 1023.7 - 1.6 - Partly cloudy 10 - - - -
19/04:00am 9.4 WSW 3 7 1023.7 - 1.4 - Partly cloudy 10 - - - -
19/03:30am 9.3 WSW 8 11 1023.7 - 1.4 - Partly cloudy 9 - - - -
19/03:00am 9.8 W 6 8 1023.8 - 1.4 - Cloudy 10 - - - -
19/02:30am 9.9 W 5 7 1023.8 - 1.4 - Partly cloudy 10 - - - -
19/02:00am 9.7 WNW 5 7 1023.9 - 1.4 - Partly cloudy 10 - - - -
19/01:30am 9.8 WSW 7 12 1024.3 - 1.4 - Partly cloudy 10 - - - -
19/01:00am 10.0 W 6 9 1024.5 - 1.4 - Partly cloudy 10 - - - -
19/12:30am 10.0 WNW 5 9 1024.5 - 1.4 - Cloudy 10 - - - -
19/12:00am 10.5 W 4 5 1024.5 - 1.4 - Mostly cloudy 10 - - - -
 
Date/Time
EST
Temp

°C
Wind Pressure Rain
since 9am
mm
Weather Cloud Vis
km
Sea
Height
m
Swell
Dir
 
Speed
knots
Gust
knots
hPa Trend Height
m
Period
s
Dir
18/11:30pm 10.5 WSW 6 10 1024.7 - 1.4 - Partly cloudy 10 - - - -
18/11:00pm 11.0 W 7 11 1024.8 - 1.4 - Partly cloudy 10 - - - -
18/10:30pm 10.8 SSW 9 13 1024.8 - 1.4 - Partly cloudy 10 - - - -
18/10:00pm 11.0 SSW 10 14 1024.8 - 1.4 - Partly cloudy 10 - - - -
18/09:30pm 11.3 SW 6 8 1024.7 - 1.4 - Partly cloudy 10 - - - -
18/09:00pm 11.1 SW 8 11 1024.7 - 1.4 - Mostly cloudy 10 - - - -
18/08:30pm 10.8 SSW 8 11 1024.5 - 1.4 - Partly cloudy 10 - - - -
18/08:00pm 11.0 SSW 10 15 1024.5 - 1.4 - Partly cloudy 10 - - - -
18/07:30pm 11.1 SSW 11 15 1024.3 - 1.4 - Partly cloudy 10 - - - -
18/07:00pm 11.1 SSW 12 16 1024.0 - 1.4 - - 10 - - - -
18/06:30pm 11.0 SSW 10 15 1023.9 - 1.4 - Partly cloudy 10 - - - -
18/06:00pm 11.3 SSW 12 16 1023.7 - 1.4 - Mostly clear 10 - - - -
18/05:30pm 11.6 SSW 12 17 1023.5 - 1.4 - Partly cloudy 10 - - - -
18/05:00pm 12.1 SW 11 15 1023.2 - 1.4 - - 10 - - - -
18/04:30pm 12.3 SW 12 17 1022.9 - 1.4 - - 10 - - - -
18/04:00pm 11.8 SSW 13 17 1022.8 - 1.4 - Partly cloudy 10 - - - -
18/03:30pm 12.4 SSW 15 18 1022.8 - 1.4 - Partly cloudy 10 - - - -
18/03:00pm 13.0 SW 14 19 1022.8 - 1.4 - Partly cloudy 10 - - - -
18/02:30pm 13.0 SW 15 20 1022.7 - 1.4 - Partly cloudy 10 - - - -
18/02:00pm 12.5 SW 14 18 1022.6 - 1.4 - Partly cloudy 10 - - - -
18/01:30pm 12.7 SSW 13 20 1022.6 - 1.4 - Partly cloudy 10 - - - -
18/01:00pm 12.4 SW 12 16 1022.6 - 1.4 - Partly cloudy 10 - - - -
18/12:30pm 12.4 SW 12 15 1022.8 - 1.4 - Partly cloudy 10 - - - -
18/12:00pm 11.8 W 9 14 1022.9 - 1.2 Recent precip. Cloudy 10 - - - -
18/11:30am 10.5 WSW 7 12 1022.8 - 1.2 - Partly cloudy 10 - - - -
18/11:28am 10.3 WSW 8 14 1022.8 - 1.2 - Partly cloudy 10 - - - -
18/11:10am 9.7 WSW 13 19 1023.1 - 0.6 - Partly cloudy 5 - - - -
18/11:00am 11.6 W 9 14 1022.9 - 0.0 - Partly cloudy 10 - - - -
18/10:30am 11.3 W 9 15 1022.9 - 0.0 - Partly cloudy 10 - - - -
18/10:00am 10.6 W 9 14 1022.9 - 0.0 - Partly cloudy 10 - - - -
18/09:30am 9.8 W 10 15 1022.8 - 0.0 - Partly cloudy 8 - - - -
18/09:00am 9.8 SW 11 14 1022.7 - 5.0 Recent precip. Cloudy 10 - - - -
18/08:30am 9.2 W 8 14 1022.3 - 5.0 - Partly cloudy 10 - - - -
18/08:00am 9.3 W 8 12 1022.3 - 4.6 - Partly cloudy 10 - - - -
18/07:43am 8.7 WSW 8 12 1021.9 - 4.6 - Partly cloudy 10 - - - -
18/07:30am 8.8 WSW 9 13 1021.8 - 4.4 - Partly cloudy 5 - - - -
18/07:26am 8.8 W 8 13 1021.8 - 4.2 - Partly cloudy 5 - - - -
18/07:00am 8.7 WSW 7 11 1021.4 - 3.2 - Partly cloudy 9 - - - -
18/06:58am 8.8 WSW 8 13 1021.4 - 3.2 - Partly cloudy 9 - - - -
18/06:46am 8.6 SW 8 10 1021.2 - 3.2 - Partly cloudy 5 - - - -
18/06:30am 8.8 W 10 14 1021.0 - 2.4 - Partly cloudy 10 - - - -
18/06:00am 8.5 W 7 13 1020.8 - 2.4 - Cloudy 10 - - - -
18/05:30am 8.7 W 9 15 1020.3 - 2.4 - Partly cloudy 10 - - - -
18/05:00am 8.6 W 8 13 1020.0 - 2.4 - Partly cloudy 10 - - - -
18/04:30am 8.3 W 10 15 1019.7 - 2.4 - Partly cloudy 10 - - - -
18/04:00am 8.3 W 7 11 1019.5 - 2.2 - Partly cloudy 10 - - - -
18/03:30am 8.6 W 10 16 1019.5 - 2.2 - Partly cloudy 10 - - - -
18/03:00am 8.5 W 10 14 1019.3 - 1.8 Recent precip. Cloudy 10 - - - -
18/02:30am 8.6 W 9 15 1019.5 - 1.4 - Partly cloudy 10 - - - -
18/02:00am 8.7 W 9 15 1019.3 - 1.2 - Partly cloudy 10 - - - -
18/01:30am 8.9 W 12 20 1019.6 - 1.2 - Partly cloudy 10 - - - -
18/01:00am 8.8 W 10 15 1019.4 - 1.0 - Partly cloudy 10 - - - -
18/12:30am 8.8 W 11 19 1019.4 - 1.0 - Partly cloudy 10 - - - -
18/12:00am 8.7 W 10 16 1019.6 - 1.0 - Partly cloudy 10 - - - -
 
Date/Time
EST
Temp

°C
Wind Pressure Rain
since 9am
mm
Weather Cloud Vis
km
Sea
Height
m
Swell
Dir
 
Speed
knots
Gust
knots
hPa Trend Height
m
Period
s
Dir
17/11:30pm 8.8 W 10 15 1019.4 - 1.0 - Partly cloudy 10 - - - -
17/11:00pm 9.0 W 10 16 1019.3 - 1.0 - Partly cloudy 10 - - - -
17/10:30pm 9.0 W 11 16 1019.2 - 1.0 - Partly cloudy 10 - - - -
17/10:00pm 9.2 W 8 12 1019.1 - 1.0 - Partly cloudy 10 - - - -
17/09:30pm 9.8 W 11 17 1018.9 - 1.0 - Partly cloudy 10 - - - -
17/09:00pm 9.9 W 11 18 1018.7 - 1.0 - Mostly clear 10 - - - -
17/08:30pm 10.1 W 10 14 1018.5 - 1.0 - Partly cloudy 10 - - - -
17/08:00pm 10.1 W 9 15 1018.3 - 1.0 - Partly cloudy 10 - - - -
17/07:30pm 10.0 WSW 11 17 1018.1 - 1.0 - Partly cloudy 10 - - - -
17/07:00pm 10.0 SW 15 23 1018.0 - 1.0 - Partly cloudy 10 - - - -
17/06:30pm 10.7 WSW 13 20 1017.5 - 1.0 - Partly cloudy 10 - - - -
17/06:00pm 10.0 WSW 16 23 1017.4 - 1.0 - Cloudy 10 - - - -
17/05:49pm 10.9 WSW 15 25 1017.1 - 1.0 - Partly cloudy 10 - - - -
17/05:30pm 10.8 SW 13 22 1016.8 - 1.0 - Partly cloudy 10 - - - -
17/05:00pm 11.3 SW 16 26 1016.2 - 1.0 - Partly cloudy 10 - - - -
17/04:45pm 11.1 SW 17 28 1016.0 - 1.0 - Partly cloudy 10 - - - -
17/04:30pm 11.0 SW 16 23 1015.9 - 1.0 - Partly cloudy 10 - - - -
17/04:00pm 11.0 WSW 12 20 1015.6 - 1.0 - Partly cloudy 10 - - - -
17/03:30pm 9.8 WSW 13 23 1015.5 - 1.0 - Partly cloudy 6 - - - -
17/03:09pm 9.7 SW 13 19 1015.5 - 0.8 - Partly cloudy 7 - - - -
17/03:00pm 9.8 SW 15 22 1015.3 - 0.8 Rain Cloudy 6 - - - -
17/02:56pm 9.7 SW 16 22 1015.3 - 0.6 - Partly cloudy 5 - - - -
17/02:30pm 11.5 WSW 13 20 1014.7 - 0.0 - Partly cloudy 10 - - - -
17/02:08pm 12.9 WSW 16 26 1014.4 - 0.0 - Cloudy 10 - - - -
17/02:00pm 13.2 WSW 18 26 1014.3 - 0.0 - Partly cloudy 10 - - - -
17/01:31pm 14.6 W 17 27 1013.8 - 0.0 - Partly cloudy 10 - - - -
17/01:30pm 14.9 W 17 25 1013.9 - 0.0 - Partly cloudy 10 - - - -
17/01:02pm 14.1 W 16 27 1013.6 - 0.0 - Partly cloudy 10 - - - -
17/01:00pm 14.5 W 15 24 1013.7 - 0.0 - Partly cloudy 10 - - - -
17/12:38pm 12.3 W 15 25 1013.8 - 0.0 - Partly cloudy 10 - - - -
17/12:30pm 13.1 W 17 25 1013.8 - 0.0 - Partly cloudy 10 - - - -
17/12:06pm 13.1 WSW 16 26 1013.8 - 0.0 - Partly cloudy 10 - - - -
17/12:00pm 12.1 WSW 17 26 1013.9 - 0.0 - Cloudy 10 - - - -

Other Formats:

Comma delimited format used in spreadsheet applications
http://www.bom.gov.au/fwo/IDV60701/IDV60701.94870.axf

JavaScript Object Notation format (JSON) in row-major order
http://www.bom.gov.au/fwo/IDV60701/IDV60701.94870.json